Amba, Kentucky
Current Conditions -  °F | °C
As of 6:55 PM on Sunday 25 Jan 2015 (Local Time) from KPBX Reporting Station
Moderate Rain Moderate Rain  
Wind Chill: 41°   Ceiling: 4300
Heat Index: 45°   Visibility: 10mi
Dew Point: 34°   Wind: 7mph
Humidity: 66%   Direction: 200°SSW
Pressure: 29.71"   Gusts: NA
Location:  37.4843°N, 82.6492°W
Report Text: KPBX 252355Z AUTO 20006KT 10SM RA BKN043 OVC048 07/01 A2971 RMK AO2 T00700011 10095 20067
Loading
Personal Weather Stations






























Interactive Weather Map New forecast layout! Learn more

10-Day Weather Forecast

Advertisements
Track Severe Weather on mobile